Historique des stations

Station météo de Chassignolles

Altitude de la station : 290 m







Données météorologiques pour le 18/08/2022
Date
Heure
Températures Humidité Point de rosée Vitesse
du vent
Direction Rafales Windchill Pression Pluviométrie
Cumul
Date
Heure
Températures Humidité Point de rosée Vitesse
du vent
Direction Rafales Windchill Pression Pluviométrie
Cumul
18/08/2022 23:5919.6 °C68 %13.3 °C3 km/hSO23 km/h19.4 1016 hPa-
18/08/2022 23:4519.7 °C69 %13.9 °C2 km/hOSO5 km/h19.4 1016 hPa-
18/08/2022 23:4419.7 °C68 %13.3 °C-SO23 km/h19.4 1016 hPa-
18/08/2022 23:3019.8 °C68 %13.9 °C5 km/hONO10 km/h20.0 1016 hPa-
18/08/2022 23:2919.7 °C68 %13.9 °C3 km/hSO23 km/h20.0 1016 hPa-
18/08/2022 23:1519.8 °C68 %13.9 °C3 km/hO5 km/h20.0 1016 hPa-
18/08/2022 23:1419.8 °C68 %13.9 °C-OSO23 km/h20.0 1016 hPa-
18/08/2022 23:0020.0 °C68 %13.9 °C3 km/hSO10 km/h20.0 1016 hPa-
18/08/2022 22:5920.0 °C68 %13.9 °C-OSO23 km/h20.0 1016 hPa-
18/08/2022 22:4620.1 °C67 %13.9 °C2 km/hSO6 km/h20.0 1016 hPa-
18/08/2022 22:4420.1 °C68 %13.9 °C2 km/hO23 km/h20.0 1016 hPa-
18/08/2022 22:3020.3 °C67 %13.9 °C-S3 km/h20.6 1016 hPa-
18/08/2022 22:2920.3 °C67 %13.9 °C2 km/hOSO23 km/h20.6 1016 hPa-
18/08/2022 22:1620.4 °C67 %13.9 °C2 km/hNNO5 km/h20.6 1016 hPa-
18/08/2022 22:1420.5 °C66 %13.9 °C2 km/hO23 km/h20.6 1016 hPa-
18/08/2022 22:0120.8 °C66 %13.9 °C2 km/hO3 km/h20.6 1016 hPa-
18/08/2022 21:5920.8 °C66 %14.4 °C-O23 km/h21.1 1016 hPa-
18/08/2022 21:4621.1 °C64 %13.9 °C2 km/hO2 km/h21.1 1016 hPa-
18/08/2022 21:4521.2 °C64 %13.9 °C-O23 km/h21.1 1016 hPa-
18/08/2022 21:3121.5 °C63 %13.9 °C2 km/hO3 km/h21.7 1015 hPa-
18/08/2022 21:3021.6 °C62 %13.9 °C-O23 km/h21.7 1015 hPa-
18/08/2022 21:1622.1 °C61 %13.9 °C-O5 km/h22.2 1015 hPa-
18/08/2022 21:1422.2 °C61 %14.4 °C-O23 km/h22.2 1015 hPa-
18/08/2022 21:0122.8 °C58 %13.9 °C-O3 km/h22.8 1015 hPa-
18/08/2022 20:5922.9 °C58 %13.9 °C-O23 km/h22.8 1015 hPa-
18/08/2022 20:4623.3 °C57 %14.4 °C-NO5 km/h23.3 1015 hPa-
18/08/2022 20:4523.4 °C56 %13.9 °C2 km/hNO23 km/h23.3 1015 hPa-
18/08/2022 20:3123.7 °C55 %13.9 °C3 km/hN13 km/h23.9 1015 hPa-
18/08/2022 20:3023.8 °C55 %13.9 °C2 km/hNNO23 km/h23.9 1015 hPa-
18/08/2022 20:1623.9 °C54 %13.9 °C8 km/hNO13 km/h23.9 1015 hPa-
18/08/2022 20:1424.1 °C54 %13.9 °C3 km/hNO19 km/h23.9 1015 hPa-
18/08/2022 20:0124.3 °C53 %13.9 °C2 km/hO11 km/h24.4 1015 hPa-
18/08/2022 20:0024.3 °C53 %13.9 °C2 km/hNO19 km/h24.4 1015 hPa-
18/08/2022 19:4624.9 °C51 %13.9 °C6 km/hNNO8 km/h25.0 1015 hPa-
18/08/2022 19:4525.0 °C52 %14.4 °C5 km/hNNO19 km/h25.0 1015 hPa-
18/08/2022 19:3125.1 °C51 %14.4 °C3 km/hSSE13 km/h25.0 1015 hPa-
18/08/2022 19:3025.1 °C52 %14.4 °C-N19 km/h25.0 1015 hPa-
18/08/2022 19:1625.3 °C50 %13.9 °C6 km/hSO14 km/h25.6 1015 hPa-
18/08/2022 19:1525.3 °C50 %13.9 °C6 km/hN19 km/h25.6 1015 hPa-
18/08/2022 19:0125.4 °C50 %14.4 °C6 km/hNNO18 km/h25.6 1015 hPa-
18/08/2022 19:0025.4 °C50 %14.4 °C6 km/hOSO19 km/h25.6 1015 hPa-
18/08/2022 18:4625.7 °C51 %15.0 °C3 km/hSO18 km/h25.6 1015 hPa-
18/08/2022 18:4525.6 °C51 %14.4 °C6 km/hNNO19 km/h25.6 1015 hPa-
18/08/2022 18:3125.5 °C52 %15.0 °C3 km/hNO23 km/h25.6 1015 hPa-
18/08/2022 18:3025.5 °C52 %15.0 °C8 km/hOSO19 km/h25.6 1015 hPa-
18/08/2022 18:1625.7 °C52 %15.0 °C10 km/hNNO16 km/h25.6 1015 hPa-
18/08/2022 18:1525.7 °C52 %15.0 °C3 km/hNNE19 km/h25.6 1015 hPa-
18/08/2022 18:0125.4 °C53 %15.0 °C14 km/hNO23 km/h24.4 1014 hPa-
18/08/2022 18:0025.4 °C53 %15.0 °C10 km/hO19 km/h25.6 1014 hPa-
18/08/2022 17:4626.0 °C54 %16.1 °C3 km/hOSO16 km/h26.1 1014 hPa-
18/08/2022 17:4525.9 °C53 %15.6 °C-NO19 km/h26.1 1014 hPa-
18/08/2022 17:3126.0 °C52 %15.6 °C11 km/hO21 km/h25.6 1014 hPa-
18/08/2022 17:3026.1 °C51 %15.0 °C13 km/hNO19 km/h25.6 1014 hPa-
18/08/2022 17:1625.9 °C52 %15.6 °C8 km/hOSO21 km/h26.1 1014 hPa-
18/08/2022 17:1526.0 °C52 %15.6 °C8 km/hNO19 km/h26.1 1014 hPa-
18/08/2022 17:0126.0 °C52 %15.6 °C6 km/hNNO21 km/h26.1 1014 hPa-
18/08/2022 17:0025.9 °C52 %15.6 °C3 km/hN19 km/h26.1 1014 hPa-
18/08/2022 16:4626.2 °C50 %15.0 °C8 km/hNO16 km/h26.1 1014 hPa-
18/08/2022 16:4526.2 °C51 %15.0 °C2 km/hOSO19 km/h26.1 1014 hPa-
18/08/2022 16:3126.2 °C52 %15.6 °C5 km/hNO14 km/h26.1 1014 hPa-
18/08/2022 16:3026.2 °C52 %15.6 °C11 km/hOSO19 km/h25.6 1014 hPa-
18/08/2022 16:1626.3 °C52 %15.6 °C5 km/hN14 km/h26.1 1014 hPa-
18/08/2022 16:1526.2 °C52 %15.6 °C8 km/hONO19 km/h26.1 1014 hPa-
18/08/2022 16:0125.3 °C53 %15.0 °C6 km/hSO13 km/h25.6 1014 hPa-
18/08/2022 16:0025.2 °C55 %15.6 °C3 km/hONO18 km/h25.0 1014 hPa-
18/08/2022 15:4625.0 °C54 %15.0 °C6 km/hNNO19 km/h25.0 1014 hPa-
18/08/2022 15:4525.0 °C53 %14.4 °C2 km/hO18 km/h25.0 1015 hPa-
18/08/2022 15:3125.2 °C55 %15.6 °C3 km/hSSE13 km/h25.0 1015 hPa-
18/08/2022 15:3025.2 °C54 %15.0 °C2 km/hESE18 km/h25.0 1015 hPa-
18/08/2022 15:1624.7 °C55 %15.0 °C11 km/hO18 km/h24.4 1015 hPa-
18/08/2022 15:1524.7 °C57 %15.6 °C11 km/hOSO16 km/h24.4 1015 hPa-
18/08/2022 15:0124.6 °C57 %15.6 °C2 km/hNO11 km/h24.4 1015 hPa-
18/08/2022 15:0024.6 °C60 %16.1 °C5 km/hONO16 km/h24.4 1015 hPa-
18/08/2022 14:4624.2 °C58 %15.6 °C6 km/hNO13 km/h24.4 1015 hPa-
18/08/2022 14:4524.2 °C59 %15.6 °C8 km/hN16 km/h24.4 1015 hPa-
18/08/2022 14:3123.4 °C60 %15.0 °C-ONO13 km/h23.3 1015 hPa-
18/08/2022 14:3023.4 °C61 %15.6 °C3 km/hOSO16 km/h23.3 1015 hPa-
18/08/2022 14:1623.7 °C60 %15.6 °C5 km/hO8 km/h23.9 1015 hPa-
18/08/2022 14:1523.7 °C59 %15.0 °C3 km/hN16 km/h23.9 1015 hPa-
18/08/2022 14:0124.2 °C60 %16.1 °C3 km/hNNE13 km/h24.4 1014 hPa-
18/08/2022 14:0024.1 °C60 %15.6 °C13 km/hN16 km/h23.3 1015 hPa-
18/08/2022 13:4523.5 °C63 %16.1 °C2 km/hSO11 km/h23.3 1014 hPa-
18/08/2022 13:4423.4 °C62 %15.6 °C3 km/hNNO16 km/h23.3 1014 hPa-
18/08/2022 13:3022.7 °C65 %15.6 °C-SE10 km/h22.8 1015 hPa-
18/08/2022 13:2922.7 °C64 %15.6 °C3 km/hSSE16 km/h22.8 1015 hPa-
18/08/2022 13:1622.3 °C66 %15.6 °C3 km/hN6 km/h22.2 1015 hPa-
18/08/2022 13:1422.3 °C66 %15.6 °C5 km/hNNO16 km/h22.2 1015 hPa-
18/08/2022 13:0022.1 °C66 %15.6 °C2 km/hNO10 km/h22.2 1015 hPa-
18/08/2022 12:5922.1 °C66 %15.6 °C-NO16 km/h22.2 1015 hPa-
18/08/2022 12:4522.3 °C70 %16.7 °C2 km/hNE8 km/h22.2 1015 hPa-
18/08/2022 12:4422.2 °C69 %16.1 °C2 km/hN16 km/h22.2 1015 hPa-
18/08/2022 12:3122.3 °C67 %16.1 °C6 km/hN13 km/h22.2 1015 hPa-
18/08/2022 12:2922.3 °C67 %16.1 °C5 km/hS16 km/h22.2 1015 hPa-
18/08/2022 12:1622.5 °C70 %16.7 °C5 km/hOSO11 km/h22.8 1015 hPa-
18/08/2022 12:1422.4 °C70 %16.7 °C2 km/hNO16 km/h22.2 1015 hPa-
18/08/2022 12:0121.7 °C72 %16.7 °C3 km/hONO14 km/h21.7 1014 hPa-
18/08/2022 11:5921.7 °C74 %16.7 °C5 km/hNNO16 km/h21.7 1014 hPa-
18/08/2022 11:4620.9 °C78 %16.7 °C6 km/hNNE14 km/h21.1 1014 hPa-
18/08/2022 11:4420.7 °C78 %16.7 °C3 km/hNE16 km/h20.6 1014 hPa-
18/08/2022 11:3119.8 °C79 %16.1 °C6 km/hNNO16 km/h20.0 1015 hPa-
18/08/2022 11:3019.8 °C78 %16.1 °C13 km/hNNO14 km/h19.4 1015 hPa-
18/08/2022 11:1619.4 °C82 %16.1 °C2 km/hONO8 km/h19.4 1015 hPa-
18/08/2022 11:1419.3 °C81 %16.1 °C5 km/hNNO13 km/h19.4 1015 hPa-
18/08/2022 11:0119.0 °C83 %16.1 °C2 km/hSO5 km/h18.9 1015 hPa-
18/08/2022 10:5919.0 °C83 %16.1 °C3 km/hOSO13 km/h18.9 1015 hPa-
18/08/2022 10:4618.6 °C86 %16.1 °C2 km/hONO6 km/h18.9 1015 hPa-
18/08/2022 10:4518.6 °C85 %16.1 °C2 km/hONO13 km/h18.3 1015 hPa-
18/08/2022 10:3117.9 °C88 %16.1 °C2 km/hSO8 km/h17.8 1015 hPa-
18/08/2022 10:3017.8 °C88 %16.1 °C3 km/hONO13 km/h17.8 1015 hPa-
18/08/2022 10:1617.4 °C87 %15.6 °C3 km/hONO8 km/h17.2 1015 hPa-
18/08/2022 10:1517.4 °C87 %15.6 °C3 km/hO13 km/h17.2 1015 hPa-
18/08/2022 10:0317.4 °C88 %15.6 °C3 km/hSO6 km/h17.2 1015 hPa-
18/08/2022 10:0017.4 °C88 %15.6 °C3 km/hSSO13 km/h17.2 1015 hPa-
18/08/2022 09:4617.3 °C89 %15.6 °C5 km/hSO6 km/h17.2 1014 hPa-
18/08/2022 09:4517.3 °C89 %15.6 °C2 km/hO13 km/h17.2 1014 hPa-
18/08/2022 09:3117.0 °C89 %15.0 °C2 km/hNO6 km/h17.2 1014 hPa-
18/08/2022 09:3017.0 °C89 %15.0 °C2 km/hNNO13 km/h17.2 1014 hPa-
18/08/2022 09:1616.9 °C89 %15.0 °C3 km/hNO6 km/h17.2 1014 hPa-
18/08/2022 09:1516.9 °C89 %15.0 °C-ONO13 km/h16.7 1014 hPa-
18/08/2022 09:0016.7 °C90 %15.0 °C-OSO13 km/h16.7 1014 hPa-
18/08/2022 08:4616.4 °C91 %15.0 °C2 km/hSSO5 km/h16.7 1014 hPa-
18/08/2022 08:4516.4 °C91 %15.0 °C3 km/hSSO13 km/h16.7 1014 hPa-
18/08/2022 08:3116.2 °C92 %15.0 °C3 km/hSSO5 km/h16.1 1014 hPa-
18/08/2022 08:3016.2 °C92 %15.0 °C2 km/hSSO13 km/h16.1 1014 hPa-
18/08/2022 08:1615.9 °C92 %14.4 °C3 km/hS6 km/h16.1 1014 hPa-
18/08/2022 08:1515.9 °C92 %14.4 °C5 km/hS13 km/h16.1 1014 hPa-
18/08/2022 08:0115.8 °C93 %14.4 °C3 km/hSSO5 km/h15.6 1014 hPa-
18/08/2022 08:0015.8 °C93 %14.4 °C3 km/hSSO13 km/h15.6 1014 hPa-
18/08/2022 07:4615.8 °C93 %14.4 °C-SSO3 km/h15.6 1014 hPa-
18/08/2022 07:4515.8 °C93 %14.4 °C-SSO13 km/h15.6 1014 hPa-
18/08/2022 07:3015.6 °C93 %14.4 °C3 km/hSSO5 km/h15.6 1014 hPa-
18/08/2022 07:2915.6 °C93 %14.4 °C3 km/hSSO13 km/h15.6 1014 hPa-
18/08/2022 07:1515.5 °C93 %14.4 °C3 km/hSSO5 km/h15.6 1014 hPa-
18/08/2022 07:1415.5 °C93 %14.4 °C3 km/hSSO13 km/h15.6 1014 hPa-
18/08/2022 07:0015.6 °C93 %14.4 °C5 km/hSSO6 km/h15.6 1014 hPa-
18/08/2022 06:5915.6 °C93 %14.4 °C3 km/hSSO13 km/h15.6 1014 hPa-
18/08/2022 06:4515.7 °C93 %14.4 °C-SSO5 km/h15.6 1013 hPa-
18/08/2022 06:4415.7 °C93 %14.4 °C2 km/hSSO13 km/h15.6 1013 hPa-
18/08/2022 06:3015.7 °C93 %14.4 °C-SSO5 km/h15.6 1013 hPa-
18/08/2022 06:2915.7 °C93 %14.4 °C-SSO13 km/h15.6 1013 hPa-
18/08/2022 06:1515.6 °C93 %14.4 °C2 km/hONO6 km/h15.6 1013 hPa-
18/08/2022 06:1415.6 °C93 %14.4 °C-O13 km/h15.6 1013 hPa-
18/08/2022 06:0015.4 °C94 %14.4 °C3 km/hSO8 km/h15.6 1013 hPa-
18/08/2022 05:5915.4 °C94 %14.4 °C6 km/hSSO13 km/h15.6 1013 hPa-
18/08/2022 05:4515.3 °C94 %14.4 °C-S3 km/h15.6 1013 hPa-
18/08/2022 05:4415.3 °C94 %14.4 °C-S13 km/h15.6 1013 hPa-
18/08/2022 05:3015.3 °C93 %14.4 °C2 km/hSE5 km/h15.6 1013 hPa-
18/08/2022 05:2915.3 °C93 %14.4 °C3 km/hSE13 km/h15.6 1013 hPa-
18/08/2022 05:1515.3 °C93 %14.4 °C-ESE3 km/h15.6 1013 hPa-
18/08/2022 05:1415.3 °C93 %14.4 °C-ESE13 km/h15.6 1013 hPa-
18/08/2022 05:0015.3 °C93 %14.4 °C2 km/hSE3 km/h15.6 1013 hPa-
18/08/2022 04:5915.3 °C93 %14.4 °C-SE13 km/h15.6 1013 hPa-
18/08/2022 04:4515.4 °C93 %14.4 °C2 km/hSE5 km/h15.6 1013 hPa-
18/08/2022 04:4415.4 °C93 %14.4 °C3 km/hSSE13 km/h15.6 1013 hPa-
18/08/2022 04:3015.1 °C94 %14.4 °C5 km/hONO5 km/h15.0 1013 hPa-
18/08/2022 04:2915.1 °C94 %14.4 °C2 km/hS13 km/h15.0 1013 hPa-
18/08/2022 04:1515.1 °C93 %13.9 °C-SSE3 km/h15.0 1013 hPa-
18/08/2022 04:1415.1 °C93 %13.9 °C2 km/hSSE13 km/h15.0 1013 hPa-
18/08/2022 04:0015.3 °C93 %14.4 °C2 km/hSSE3 km/h15.6 1013 hPa-
18/08/2022 03:5915.3 °C93 %14.4 °C3 km/hSSE13 km/h15.6 1013 hPa-
18/08/2022 03:4515.4 °C93 %14.4 °C2 km/hSO5 km/h15.6 1013 hPa-
18/08/2022 03:4415.5 °C93 %14.4 °C2 km/hSO13 km/h15.6 1013 hPa-
18/08/2022 03:3015.6 °C93 %14.4 °C3 km/hSO5 km/h15.6 1013 hPa-
18/08/2022 03:2915.6 °C93 %14.4 °C3 km/hSO13 km/h15.6 1013 hPa-
18/08/2022 03:1615.7 °C92 %14.4 °C2 km/hSO3 km/h15.6 1013 hPa-
18/08/2022 03:1415.8 °C92 %14.4 °C2 km/hSO13 km/h15.6 1013 hPa-
18/08/2022 03:0015.9 °C92 %14.4 °C2 km/hSO3 km/h16.1 1013 hPa-
18/08/2022 02:5915.9 °C92 %14.4 °C-SO13 km/h16.1 1013 hPa-
18/08/2022 02:4516.0 °C92 %15.0 °C2 km/hSO5 km/h16.1 1013 hPa-
18/08/2022 02:4416.1 °C92 %15.0 °C2 km/hSO13 km/h16.1 1013 hPa-
18/08/2022 02:3016.2 °C91 %15.0 °C3 km/hSSO5 km/h16.1 1013 hPa-
18/08/2022 02:2916.3 °C91 %15.0 °C2 km/hSSO13 km/h16.1 1013 hPa-
18/08/2022 02:1516.4 °C91 %15.0 °C3 km/hS5 km/h16.7 1013 hPa-
18/08/2022 02:1416.4 °C91 %15.0 °C2 km/hS13 km/h16.7 1013 hPa-
18/08/2022 02:0116.5 °C92 %15.0 °C3 km/hSSO6 km/h16.7 1013 hPa-
18/08/2022 01:5916.5 °C92 %15.0 °C3 km/hSSO13 km/h16.7 1013 hPa-
18/08/2022 01:4616.7 °C92 %15.6 °C3 km/hSSO5 km/h16.7 1013 hPa-
18/08/2022 01:4416.7 °C92 %15.6 °C2 km/hSO13 km/h16.7 1013 hPa-
18/08/2022 01:3116.8 °C92 %15.6 °C5 km/hSO8 km/h16.7 1013 hPa-
18/08/2022 01:2916.8 °C92 %15.6 °C3 km/hSSO13 km/h16.7 1013 hPa-
18/08/2022 01:1616.8 °C92 %15.6 °C5 km/hSSO11 km/h16.7 1013 hPa-
18/08/2022 01:1516.8 °C92 %15.6 °C10 km/hSO13 km/h16.7 1013 hPa-
18/08/2022 01:0116.9 °C92 %15.6 °C11 km/hSSO13 km/h16.7 1013 hPa-
18/08/2022 01:0017.0 °C92 %15.6 °C8 km/hSO13 km/h17.2 1013 hPa-
18/08/2022 00:4517.0 °C92 %15.6 °C6 km/hSSO13 km/h17.2 1013 hPa-
18/08/2022 00:3117.2 °C92 %16.1 °C6 km/hSO11 km/h17.2 1013 hPa-
18/08/2022 00:3017.2 °C92 %16.1 °C5 km/hSSO11 km/h17.2 1013 hPa-
18/08/2022 00:1617.2 °C92 %16.1 °C5 km/hSO10 km/h17.2 1013 hPa-
18/08/2022 00:1517.2 °C92 %16.1 °C3 km/hS11 km/h17.2 1013 hPa-
18/08/2022 00:0117.3 °C92 %16.1 °C6 km/hSSO11 km/h17.2 1013 hPa-
18/08/2022 00:0017.3 °C92 %16.1 °C6 km/hS8 km/h17.2 1013 hPa-


Minima :

Température : 15.1 °C
Humidité : 50 %
Point de rosée : 13.3 °C
Vent moyen : 2 km/h
Windchill : 15.0
Pression atm. : 1013 hPa
Maxima :

Température : 26.3 °C
Humidité : 94 %
Point de rosée : 16.7 °C
Vent moyen : 14 km/h
Windchill : 26.1
Pression atm. : 1016 hPa
Rafales max : 23 km/h
Cumul de pluie sur 24H : 0 mm

Chassignolles est une commune du département Indre (36).
La station météorologique du réseau de l'association la plus proche de Chassignolles est celle de Beddes



Icône Facebook Association Météo Centre Icône Twitter Association Météo Centre Icône Chaîne Youtube Association Météo Centre Icône contact Association Météo Centre Icône Insta Association Météo Centre